Amherstburg, Canada
Current Conditions -  °F | °C
As of 1:34 AM on Friday 19 Dec 2014 (Local Time) from KONZ Reporting Station
Overcast Overcast  
Wind Chill: 30°   Ceiling: 1800
Heat Index: 30°   Visibility: 10mi
Dew Point: 27°   Wind: 3mph
Humidity: 86%   Direction: 350°N
Pressure: 30.18"   Gusts: NA
Location:  42.1°N, 83.11°W
Report Text: KONZ 190634Z AUTO 35003KT 10SM OVC018 M01/M03 A3018 RMK AO2
Loading
Personal Weather Stations






























Interactive Weather Map New forecast layout! Learn more

10-Day Weather Forecast

Advertisements
Track Severe Weather on mobile